createdAt,value
2018-07-25T00:00:59.866Z,101365.53
2018-07-25T00:03:28.777Z,101362.64
2018-07-25T00:05:57.426Z,101360.71
2018-07-25T00:08:26.131Z,101360.74
2018-07-25T00:10:55.606Z,101357.16
2018-07-25T00:13:25.948Z,101355.34
2018-07-25T00:15:54.746Z,101358.59
2018-07-25T00:18:23.426Z,101352.37
2018-07-25T00:20:52.203Z,101352.55
2018-07-25T00:23:20.848Z,101358.13
2018-07-25T00:25:49.571Z,101360.42
2018-07-25T00:28:18.275Z,101363.75
2018-07-25T00:30:46.982Z,101356.72
2018-07-25T00:33:15.664Z,101355.06
2018-07-25T00:35:44.373Z,101355.73
2018-07-25T00:38:12.987Z,101354.71
2018-07-25T00:40:41.716Z,101359.40
2018-07-25T00:43:10.458Z,101362.31
2018-07-25T00:45:39.315Z,101371.05
2018-07-25T00:48:08.598Z,101354.12
2018-07-25T00:50:37.319Z,101349.43
2018-07-25T00:53:05.997Z,101353.67
2018-07-25T00:55:34.628Z,101355.86
2018-07-25T00:58:03.401Z,101358.02
2018-07-25T01:00:32.130Z,101351.95
2018-07-25T01:03:00.961Z,101354.14
2018-07-25T01:05:29.703Z,101355.73
2018-07-25T01:07:58.323Z,101352.41
2018-07-25T01:10:27.296Z,101359.05
2018-07-25T01:12:56.005Z,101361.23
2018-07-25T01:15:24.656Z,101358.52
2018-07-25T01:17:53.427Z,101363.88
2018-07-25T01:20:22.252Z,101364.02
2018-07-25T01:22:50.943Z,101359.80
2018-07-25T01:25:19.652Z,101354.15
2018-07-25T01:27:48.355Z,101362.19
2018-07-25T01:30:17.055Z,101364.38
2018-07-25T01:32:45.791Z,101363.03
2018-07-25T01:35:14.428Z,101360.50
2018-07-25T01:37:43.068Z,101357.53
2018-07-25T01:40:11.712Z,101363.39
2018-07-25T01:42:40.439Z,101362.33
2018-07-25T01:45:09.196Z,101362.47
2018-07-25T01:47:38.028Z,101361.80
2018-07-25T01:50:06.998Z,101360.75
2018-07-25T01:52:35.733Z,101359.55
2018-07-25T01:55:04.965Z,101360.89
2018-07-25T01:57:33.689Z,101361.06
2018-07-25T02:00:02.381Z,101355.03
2018-07-25T02:02:31.037Z,101359.52
2018-07-25T02:04:59.725Z,101359.72
2018-07-25T02:07:28.366Z,101362.93
2018-07-25T02:09:57.024Z,101364.63
2018-07-25T02:12:25.705Z,101363.07
2018-07-25T02:14:54.361Z,101362.93
2018-07-25T02:17:23.090Z,101367.34
2018-07-25T02:19:51.714Z,101368.68
2018-07-25T02:22:20.423Z,101367.66
2018-07-25T02:24:49.526Z,101370.48
2018-07-25T02:27:18.168Z,101370.62
2018-07-25T02:29:46.952Z,101362.72
2018-07-25T02:32:15.627Z,101372.70
2018-07-25T02:34:44.232Z,101375.98
2018-07-25T02:37:12.903Z,101379.50
2018-07-25T02:39:42.136Z,101374.14
2018-07-25T02:42:10.887Z,101376.54
2018-07-25T02:44:39.633Z,101381.80
2018-07-25T02:47:08.401Z,101384.58
2018-07-25T02:49:37.166Z,101392.16
2018-07-25T02:52:05.892Z,101407.11
2018-07-25T02:54:34.534Z,101416.74
2018-07-25T02:57:03.415Z,101416.63
2018-07-25T02:59:32.022Z,101406.55
2018-07-25T03:02:00.693Z,101401.71
2018-07-25T03:04:29.374Z,101400.64
2018-07-25T03:06:58.109Z,101407.84
2018-07-25T03:09:26.845Z,101399.09
2018-07-25T03:11:55.550Z,101394.26
2018-07-25T03:14:24.272Z,101390.65
2018-07-25T03:16:52.927Z,101384.94
2018-07-25T03:19:21.631Z,101392.98
2018-07-25T03:21:50.301Z,101388.56
2018-07-25T03:24:18.993Z,101380.69
2018-07-25T03:26:47.817Z,101380.60
2018-07-25T03:29:16.577Z,101385.96
2018-07-25T03:31:45.203Z,101388.18
2018-07-25T03:34:13.914Z,101386.72
2018-07-25T03:36:42.707Z,101382.55
2018-07-25T03:39:11.338Z,101383.45
2018-07-25T03:41:40.223Z,101383.63
2018-07-25T03:44:08.844Z,101392.23
2018-07-25T03:46:37.652Z,101381.55
2018-07-25T03:49:06.330Z,101384.94
2018-07-25T03:51:34.992Z,101381.58
2018-07-25T03:54:03.761Z,101378.73
2018-07-25T03:56:32.435Z,101375.20
2018-07-25T03:59:01.040Z,101377.73
2018-07-25T04:01:29.724Z,101378.80
2018-07-25T04:03:58.473Z,101381.22
2018-07-25T04:06:27.139Z,101386.26
2018-07-25T04:08:55.803Z,101384.49
2018-07-25T04:11:24.558Z,101389.88
2018-07-25T04:13:53.230Z,101389.23
2018-07-25T04:16:21.970Z,101381.41
2018-07-25T04:18:51.100Z,101382.65
2018-07-25T04:21:19.719Z,101382.05
2018-07-25T04:23:48.364Z,101380.03
2018-07-25T04:26:17.051Z,101375.27
2018-07-25T04:28:45.701Z,101376.16
2018-07-25T04:31:14.335Z,101381.25
2018-07-25T04:33:43.261Z,101384.38
2018-07-25T04:36:11.901Z,101387.20
2018-07-25T04:38:40.548Z,101383.73
2018-07-25T04:41:09.320Z,101389.06
2018-07-25T04:43:37.958Z,101389.63
2018-07-25T04:46:06.750Z,101384.80
2018-07-25T04:48:35.490Z,101386.59
2018-07-25T04:51:04.159Z,101384.97
2018-07-25T04:53:32.912Z,101391.73
2018-07-25T04:56:01.659Z,101392.44
2018-07-25T04:58:30.655Z,101384.80
2018-07-25T05:00:59.964Z,101378.00
2018-07-25T05:03:28.668Z,101378.48
2018-07-25T05:05:57.368Z,101381.20
2018-07-25T05:08:26.119Z,101378.52
2018-07-25T05:10:54.746Z,101375.45
2018-07-25T05:13:23.587Z,101388.55
2018-07-25T05:15:52.287Z,101380.81
2018-07-25T05:18:20.906Z,101394.17
2018-07-25T05:20:49.907Z,101389.96
2018-07-25T05:23:18.629Z,101387.81
2018-07-25T05:25:47.281Z,101380.89
2018-07-25T05:28:16.051Z,101385.07
2018-07-25T05:30:44.728Z,101386.30
2018-07-25T05:33:13.464Z,101382.64
2018-07-25T05:35:42.297Z,101380.61
2018-07-25T05:38:11.013Z,101373.56
2018-07-25T05:40:39.655Z,101377.61
2018-07-25T05:43:08.353Z,101375.92
2018-07-25T05:45:37.021Z,101369.77
2018-07-25T05:48:05.715Z,101373.09
2018-07-25T05:50:34.558Z,101371.91
2018-07-25T05:53:03.265Z,101373.09
2018-07-25T05:55:31.828Z,101363.58
2018-07-25T05:58:00.630Z,101368.61
2018-07-25T06:00:29.384Z,101359.16
2018-07-25T06:02:58.155Z,101360.12
2018-07-25T06:05:26.890Z,101361.46
2018-07-25T06:07:55.586Z,101353.91
2018-07-25T06:10:24.378Z,101360.84
2018-07-25T06:12:53.300Z,101355.81
2018-07-25T06:15:21.940Z,101358.86
2018-07-25T06:17:50.577Z,101361.93
2018-07-25T06:20:19.321Z,101356.97
2018-07-25T06:22:48.102Z,101351.79
2018-07-25T06:25:16.828Z,101347.56
2018-07-25T06:27:46.257Z,101353.76
2018-07-25T06:30:14.954Z,101349.16
2018-07-25T06:32:43.647Z,101345.79
2018-07-25T06:35:12.551Z,101345.45
2018-07-25T06:37:41.184Z,101343.06
2018-07-25T06:40:09.794Z,101355.73
2018-07-25T06:42:38.566Z,101349.00
2018-07-25T06:45:07.649Z,101344.91
2018-07-25T06:47:36.698Z,101343.95
2018-07-25T06:50:06.147Z,101345.20
2018-07-25T06:52:34.843Z,101341.72
2018-07-25T06:55:03.538Z,101336.33
2018-07-25T06:57:32.199Z,101337.88
2018-07-25T07:00:00.955Z,101343.57
2018-07-25T07:02:29.599Z,101334.20
2018-07-25T07:04:58.568Z,101338.67
2018-07-25T07:07:27.398Z,101338.86
2018-07-25T07:09:56.242Z,101337.58
2018-07-25T07:12:25.103Z,101337.54
2018-07-25T07:14:53.828Z,101336.84
2018-07-25T07:17:22.540Z,101340.77
2018-07-25T07:19:51.479Z,101339.44
2018-07-25T07:22:20.071Z,101341.62
2018-07-25T07:24:48.846Z,101338.97
2018-07-25T07:27:17.614Z,101340.12
2018-07-25T07:29:46.341Z,101339.41
2018-07-25T07:32:15.092Z,101335.15
2018-07-25T07:34:43.852Z,101328.55
2018-07-25T07:37:12.661Z,101327.16
2018-07-25T07:39:41.301Z,101329.91
2018-07-25T07:42:10.076Z,101323.77
2018-07-25T07:44:38.822Z,101318.77
2018-07-25T07:47:07.635Z,101328.51
2018-07-25T07:49:36.313Z,101326.14
2018-07-25T07:52:05.029Z,101327.19
2018-07-25T07:54:33.797Z,101319.64
2018-07-25T07:57:02.544Z,101320.31
2018-07-25T07:59:31.329Z,101316.03
2018-07-25T08:02:00.139Z,101313.28
2018-07-25T08:04:28.878Z,101320.52
2018-07-25T08:06:57.631Z,101320.31
2018-07-25T08:10:28.740Z,101318.11
2018-07-25T08:12:57.719Z,101311.46
2018-07-25T08:15:26.764Z,101309.77
2018-07-25T08:17:55.486Z,101308.45
2018-07-25T08:20:24.150Z,101301.66
2018-07-25T08:22:52.845Z,101304.53
2018-07-25T08:25:21.540Z,101303.14
2018-07-25T08:27:50.263Z,101298.64
2018-07-25T08:30:18.955Z,101298.67
2018-07-25T08:32:47.684Z,101298.67
2018-07-25T08:35:16.459Z,101302.66
2018-07-25T08:37:45.311Z,101300.73
2018-07-25T08:40:13.951Z,101300.03
2018-07-25T08:42:42.856Z,101306.03
2018-07-25T08:45:11.512Z,101303.25
2018-07-25T08:47:40.108Z,101314.61
2018-07-25T08:50:09.785Z,101307.13
2018-07-25T08:52:38.950Z,101299.74
2018-07-25T08:55:07.681Z,101296.23
2018-07-25T08:57:36.402Z,101303.63
2018-07-25T09:00:05.956Z,101293.89
2018-07-25T09:02:34.698Z,101309.04
2018-07-25T09:05:03.508Z,101297.41
2018-07-25T09:07:32.285Z,101297.40
2018-07-25T09:10:01.068Z,101296.09
2018-07-25T09:12:29.742Z,101199.09
2018-07-25T09:14:58.531Z,101287.62
2018-07-25T09:17:27.283Z,101286.62
2018-07-25T09:19:56.164Z,101289.34
2018-07-25T09:22:24.910Z,101291.75
2018-07-25T09:24:53.765Z,101285.66
2018-07-25T09:27:22.544Z,101289.28
2018-07-25T09:29:51.297Z,101295.42
2018-07-25T09:32:19.974Z,101282.85
2018-07-25T09:34:48.685Z,101273.94
2018-07-25T09:37:17.499Z,101280.30
2018-07-25T09:39:46.262Z,101275.73
2018-07-25T09:42:14.936Z,101281.39
2018-07-25T09:44:43.691Z,101268.80
2018-07-25T09:47:12.407Z,101271.17
2018-07-25T09:49:41.043Z,101277.66
2018-07-25T09:52:09.882Z,101274.17
2018-07-25T09:54:38.625Z,101264.80
2018-07-25T09:57:07.373Z,101263.67
2018-07-25T09:59:36.108Z,101258.03
2018-07-25T10:02:04.742Z,101256.55
2018-07-25T10:04:33.555Z,101259.39
2018-07-25T10:07:02.199Z,101251.44
2018-07-25T10:09:30.743Z,101250.73
2018-07-25T10:11:59.380Z,101254.85
2018-07-25T10:14:28.034Z,101248.52
2018-07-25T10:16:56.892Z,101249.88
2018-07-25T10:19:25.755Z,101251.27
2018-07-25T10:21:54.500Z,101244.95
2018-07-25T10:24:23.259Z,101248.66
2018-07-25T10:26:51.986Z,101249.14
2018-07-25T10:29:20.732Z,101244.66
2018-07-25T10:31:49.379Z,101250.39
2018-07-25T10:34:18.166Z,101236.47
2018-07-25T10:36:46.873Z,101239.51
2018-07-25T10:39:15.535Z,101240.69
2018-07-25T10:41:44.451Z,101256.69
2018-07-25T10:44:13.303Z,101239.72
2018-07-25T10:46:42.619Z,101232.53
2018-07-25T10:49:11.451Z,101238.06
2018-07-25T10:51:40.216Z,101227.74
2018-07-25T10:54:08.892Z,101230.89
2018-07-25T10:56:37.525Z,101227.28
2018-07-25T10:59:06.187Z,101235.05
2018-07-25T11:01:34.906Z,101233.63
2018-07-25T11:04:03.622Z,101235.91
2018-07-25T11:06:32.301Z,101212.81
2018-07-25T11:09:00.995Z,101225.03
2018-07-25T11:11:30.500Z,101215.35
2018-07-25T11:14:00.545Z,101212.94
2018-07-25T11:16:29.449Z,101218.96
2018-07-25T11:18:58.090Z,101224.53
2018-07-25T11:21:26.895Z,101214.20
2018-07-25T11:23:55.653Z,101213.41
2018-07-25T11:26:24.383Z,101224.77
2018-07-25T11:28:53.051Z,101217.23
2018-07-25T11:31:21.880Z,101210.81
2018-07-25T11:33:50.494Z,101217.48
2018-07-25T11:36:19.185Z,101216.86
2018-07-25T11:38:47.924Z,101211.55
2018-07-25T11:41:16.672Z,101210.97
2018-07-25T11:43:45.502Z,101203.57
2018-07-25T11:46:14.192Z,101210.37
2018-07-25T11:48:43.017Z,101203.14
2018-07-25T11:51:11.706Z,101212.89
2018-07-25T11:53:40.381Z,101206.61
2018-07-25T11:56:09.040Z,101201.88
2018-07-25T11:58:37.748Z,101200.50
2018-07-25T12:01:06.494Z,101203.59
2018-07-25T12:03:35.121Z,101187.30
2018-07-25T12:06:03.811Z,101191.52
2018-07-25T12:08:32.577Z,101186.77
2018-07-25T12:11:01.358Z,101188.88
2018-07-25T12:13:30.220Z,101185.62
2018-07-25T12:15:58.938Z,101184.89
2018-07-25T12:18:27.687Z,101175.61
2018-07-25T12:20:56.568Z,101174.91
2018-07-25T12:23:25.319Z,101180.52
2018-07-25T12:25:54.003Z,101176.06
2018-07-25T12:28:22.682Z,101174.97
2018-07-25T12:30:51.397Z,101172.63
2018-07-25T12:33:20.080Z,101177.70
2018-07-25T12:35:48.972Z,101174.47
2018-07-25T12:38:17.652Z,101174.91
2018-07-25T12:40:46.283Z,101170.48
2018-07-25T12:43:15.013Z,101153.64
2018-07-25T12:45:43.982Z,101177.65
2018-07-25T12:48:12.691Z,101167.98
2018-07-25T12:50:41.413Z,101164.28
2018-07-25T12:53:10.188Z,101168.84
2018-07-25T12:55:38.915Z,101178.00
2018-07-25T12:58:07.765Z,101163.20
2018-07-25T13:00:36.527Z,101152.23
2018-07-25T13:03:05.921Z,101157.05
2018-07-25T13:05:34.632Z,101174.69
2018-07-25T13:08:03.348Z,101163.33
2018-07-25T13:10:32.158Z,101156.59
2018-07-25T13:13:00.929Z,101173.24
2018-07-25T13:15:29.641Z,101170.87
2018-07-25T13:17:58.294Z,101171.56
2018-07-25T13:20:27.073Z,101167.72
2018-07-25T13:22:56.082Z,101182.12
2018-07-25T13:25:24.745Z,101190.05
2018-07-25T13:27:53.572Z,101194.39
2018-07-25T13:30:22.375Z,101192.85
2018-07-25T13:32:51.147Z,101189.46
2018-07-25T13:35:19.840Z,101189.83
2018-07-25T13:37:48.802Z,101220.27
2018-07-25T13:40:17.515Z,101190.08
2018-07-25T13:42:46.393Z,101200.33
2018-07-25T13:45:15.151Z,101194.25
2018-07-25T13:47:43.796Z,101192.69
2018-07-25T13:50:12.528Z,101187.56
2018-07-25T13:52:41.412Z,101187.13
2018-07-25T13:55:10.093Z,101195.30
2018-07-25T13:57:38.727Z,101178.39
2018-07-25T14:00:09.293Z,101168.77
2018-07-25T14:02:38.046Z,101162.47
2018-07-25T14:05:07.057Z,101170.45
2018-07-25T14:07:35.684Z,101160.05
2018-07-25T14:10:04.929Z,101171.14
2018-07-25T14:12:33.696Z,101174.45
2018-07-25T14:15:02.523Z,101165.16
2018-07-25T14:17:31.304Z,101162.28
2018-07-25T14:20:00.039Z,101163.65
2018-07-25T14:22:28.709Z,101167.80
2018-07-25T14:24:57.792Z,101160.13
2018-07-25T14:27:26.584Z,101156.63
2018-07-25T14:29:55.255Z,101164.95
2018-07-25T14:32:23.974Z,101159.42
2018-07-25T14:34:52.919Z,101160.41
2018-07-25T14:37:21.588Z,101165.20
2018-07-25T14:39:50.536Z,101159.33
2018-07-25T14:42:19.351Z,101154.45
2018-07-25T14:44:48.183Z,101155.56
2018-07-25T14:47:17.043Z,101158.46
2018-07-25T14:49:45.871Z,101147.41
2018-07-25T14:52:14.556Z,101154.59
2018-07-25T14:54:43.243Z,101148.55
2018-07-25T14:57:12.130Z,101152.41
2018-07-25T14:59:40.959Z,101148.44
2018-07-25T15:02:09.709Z,101151.67
2018-07-25T15:04:38.443Z,101158.33
2018-07-25T15:07:07.137Z,101156.80
2018-07-25T15:09:35.851Z,101158.56
2018-07-25T15:12:04.811Z,101159.77
2018-07-25T15:14:33.531Z,101155.19
2018-07-25T15:17:02.326Z,101150.78
2018-07-25T15:19:30.951Z,101155.75
2018-07-25T15:21:59.620Z,101158.97
2018-07-25T15:24:28.334Z,101156.77
2018-07-25T15:26:56.967Z,101156.80
2018-07-25T15:29:25.709Z,101159.52
2018-07-25T15:31:54.455Z,101161.59
2018-07-25T15:34:23.179Z,101167.78
2018-07-25T15:36:52.948Z,101162.70
2018-07-25T15:39:22.835Z,101152.62
2018-07-25T15:41:52.407Z,101156.16
2018-07-25T15:44:22.097Z,101159.30
2018-07-25T15:46:50.854Z,101169.16
2018-07-25T15:49:20.101Z,101168.11
2018-07-25T15:51:49.092Z,101157.34
2018-07-25T15:54:17.891Z,101149.92
2018-07-25T15:56:46.811Z,101152.13
2018-07-25T15:59:15.589Z,101160.17
2018-07-25T16:01:44.381Z,101155.75
2018-07-25T16:04:13.112Z,101155.70
2018-07-25T16:06:42.088Z,101158.44
2018-07-25T16:09:12.327Z,101154.41
2018-07-25T16:11:41.567Z,101173.05
2018-07-25T16:14:10.305Z,101165.91
2018-07-25T16:16:38.999Z,101170.41
2018-07-25T16:19:07.815Z,101168.87
2018-07-25T16:21:36.582Z,101169.88
2018-07-25T16:24:05.315Z,101168.19
2018-07-25T16:26:33.989Z,101166.66
2018-07-25T16:29:03.147Z,101168.92
2018-07-25T16:31:31.859Z,101166.66
2018-07-25T16:34:00.599Z,101171.01
2018-07-25T16:36:29.424Z,101177.59
2018-07-25T16:38:58.414Z,101178.22
2018-07-25T16:41:27.248Z,101184.40
2018-07-25T16:43:56.072Z,101186.39
2018-07-25T16:46:24.767Z,101193.41
2018-07-25T16:48:53.498Z,101198.80
2018-07-25T16:51:23.128Z,101212.20
2018-07-25T16:53:51.806Z,101206.47
2018-07-25T16:56:20.552Z,101207.23
2018-07-25T16:58:49.305Z,101204.64
2018-07-25T17:01:18.092Z,101204.22
2018-07-25T17:03:46.780Z,101215.11
2018-07-25T17:06:15.533Z,101213.34
2018-07-25T17:08:44.234Z,101213.86
2018-07-25T17:11:12.882Z,101221.73
2018-07-25T17:13:41.726Z,101224.13
2018-07-25T17:16:10.934Z,101232.28
2018-07-25T17:18:39.588Z,101231.13
2018-07-25T17:21:08.294Z,101236.88
2018-07-25T17:23:37.008Z,101231.33
2018-07-25T17:26:05.711Z,101235.34
2018-07-25T17:28:34.415Z,101240.87
2018-07-25T17:31:03.075Z,101246.74
2018-07-25T17:33:31.846Z,101242.36
2018-07-25T17:36:00.622Z,101243.39
2018-07-25T17:38:29.476Z,101243.48
2018-07-25T17:40:58.378Z,101252.79
2018-07-25T17:43:27.000Z,101249.23
2018-07-25T17:45:55.741Z,101252.06
2018-07-25T17:48:24.476Z,101243.75
2018-07-25T17:50:53.199Z,101257.85
2018-07-25T17:53:22.224Z,101229.53
2018-07-25T17:55:51.177Z,101251.59
2018-07-25T17:58:19.872Z,101255.86
2018-07-25T18:00:48.625Z,101261.81
2018-07-25T18:03:17.386Z,101268.28
2018-07-25T18:05:46.110Z,101271.42
2018-07-25T18:08:14.746Z,101272.13
2018-07-25T18:10:43.598Z,101272.10
2018-07-25T18:14:18.506Z,101280.05
2018-07-25T18:16:47.159Z,101273.53
2018-07-25T18:19:16.609Z,101278.63
2018-07-25T18:21:45.307Z,101278.02
2018-07-25T18:24:14.362Z,101281.61
2018-07-25T18:26:43.262Z,101282.24
2018-07-25T18:29:12.124Z,101275.23
2018-07-25T18:31:40.944Z,101275.11
2018-07-25T18:34:09.677Z,101277.98
2018-07-25T18:36:38.373Z,101274.34
2018-07-25T18:39:10.069Z,101274.05
2018-07-25T18:41:38.967Z,101273.53
2018-07-25T18:44:07.817Z,101274.56
2018-07-25T18:46:36.565Z,101283.95
2018-07-25T18:49:05.352Z,101293.50
2018-07-25T18:51:34.034Z,101295.69
2018-07-25T18:54:02.900Z,101294.68
2018-07-25T18:56:31.663Z,101311.98
2018-07-25T18:59:00.408Z,101304.69
2018-07-25T19:01:29.098Z,101301.28
2018-07-25T19:03:58.002Z,101289.98
2018-07-25T19:06:27.358Z,101296.47
2018-07-25T19:08:56.047Z,101293.39
2018-07-25T19:11:24.776Z,101287.97
2018-07-25T19:13:58.612Z,101289.33
2018-07-25T19:16:27.270Z,101288.25
2018-07-25T19:18:56.051Z,101302.83
2018-07-25T19:21:24.841Z,101291.10
2018-07-25T19:23:53.606Z,101298.34
2018-07-25T19:26:22.267Z,101303.84
2018-07-25T19:28:50.965Z,101304.22
2018-07-25T19:31:19.772Z,101307.84
2018-07-25T19:33:48.422Z,101311.95
2018-07-25T19:36:17.023Z,101308.02
2018-07-25T19:38:45.646Z,101306.83
2018-07-25T19:41:14.426Z,101307.20
2018-07-25T19:43:43.082Z,101301.50
2018-07-25T19:46:11.753Z,101310.14
2018-07-25T19:48:40.448Z,101317.23
2018-07-25T19:51:09.158Z,101308.83
2018-07-25T19:53:37.917Z,101317.28
2018-07-25T19:56:06.706Z,101316.95
2018-07-25T19:58:35.326Z,101314.48
2018-07-25T20:01:03.990Z,101313.45
2018-07-25T20:03:32.665Z,101307.85
2018-07-25T20:06:01.335Z,101307.71
2018-07-25T20:08:29.983Z,101313.56
2018-07-25T20:10:58.731Z,101326.66
2018-07-25T20:13:31.320Z,101320.14
2018-07-25T20:16:01.369Z,101332.54
2018-07-25T20:18:30.725Z,101333.12
2018-07-25T20:20:59.465Z,101338.18
2018-07-25T20:23:28.655Z,101335.39
2018-07-25T20:25:57.510Z,101330.73
2018-07-25T20:28:26.419Z,101331.84
2018-07-25T20:30:55.466Z,101329.20
2018-07-25T20:33:24.112Z,101323.70
2018-07-25T20:35:53.220Z,101322.71
2018-07-25T20:38:21.872Z,101313.16
2018-07-25T20:40:50.595Z,101321.09
2018-07-25T20:43:19.466Z,101332.26
2018-07-25T20:45:48.091Z,101328.59
2018-07-25T20:48:16.896Z,101328.49
2018-07-25T20:50:45.661Z,101324.70
2018-07-25T20:53:14.366Z,101327.93
2018-07-25T20:55:43.092Z,101344.19
2018-07-25T20:58:12.174Z,101342.17
2018-07-25T21:00:40.857Z,101342.31
2018-07-25T21:03:09.480Z,101351.83
2018-07-25T21:05:38.200Z,101354.24
2018-07-25T21:08:07.007Z,101354.92
2018-07-25T21:10:36.721Z,101350.43
2018-07-25T21:13:05.555Z,101348.92
2018-07-25T21:15:34.348Z,101344.42
2018-07-25T21:18:03.017Z,101347.17
2018-07-25T21:20:31.843Z,101350.77
2018-07-25T21:23:00.683Z,101347.66
2018-07-25T21:25:29.392Z,101349.19
2018-07-25T21:27:58.288Z,101351.59
2018-07-25T21:30:27.012Z,101354.33
2018-07-25T21:32:55.844Z,101343.33
2018-07-25T21:35:24.526Z,101344.17
2018-07-25T21:37:53.597Z,101341.17
2018-07-25T21:40:22.359Z,101348.43
2018-07-25T21:42:51.160Z,101353.98
2018-07-25T21:45:20.012Z,101361.05
2018-07-25T21:47:48.647Z,101363.75
2018-07-25T21:50:17.466Z,101364.12
2018-07-25T21:52:46.263Z,101364.66
2018-07-25T21:55:14.977Z,101367.36
2018-07-25T21:57:43.657Z,101371.75
2018-07-25T22:00:15.707Z,101369.05
2018-07-25T22:02:45.795Z,101371.41
2018-07-25T22:05:14.875Z,101387.27
2018-07-25T22:07:44.383Z,101377.47
2018-07-25T22:10:13.042Z,101384.05
2018-07-25T22:12:41.900Z,101384.18
2018-07-25T22:15:11.621Z,101379.13
2018-07-25T22:17:40.286Z,101385.36
2018-07-25T22:20:12.127Z,101390.78
2018-07-25T22:22:41.220Z,101393.64
2018-07-25T22:25:10.591Z,101392.34
2018-07-25T22:27:39.926Z,101397.74
2018-07-25T22:30:09.025Z,101397.75
2018-07-25T22:32:37.745Z,101403.13
2018-07-25T22:35:06.467Z,101411.36
2018-07-25T22:37:35.149Z,101415.22
2018-07-25T22:40:03.901Z,101414.34
2018-07-25T22:42:32.719Z,101421.42
2018-07-25T22:45:01.432Z,101424.48
2018-07-25T22:47:30.067Z,101420.44
2018-07-25T22:49:58.782Z,101420.60
2018-07-25T22:52:27.467Z,101430.73
2018-07-25T22:54:56.221Z,101423.65
2018-07-25T22:57:24.898Z,101434.43
2018-07-25T22:59:54.257Z,101428.51
2018-07-25T23:02:22.914Z,101433.91
2018-07-25T23:04:51.663Z,101435.41
2018-07-25T23:07:20.282Z,101433.56
2018-07-25T23:09:48.991Z,101436.26
2018-07-25T23:12:17.600Z,101437.47
2018-07-25T23:14:46.367Z,101433.05
2018-07-25T23:17:15.013Z,101436.77
2018-07-25T23:19:43.697Z,101441.69
2018-07-25T23:22:12.310Z,101437.98
2018-07-25T23:24:41.050Z,101446.94
2018-07-25T23:27:09.830Z,101454.17
2018-07-25T23:29:38.553Z,101457.20
2018-07-25T23:32:07.243Z,101452.48
2018-07-25T23:34:36.062Z,101445.59
2018-07-25T23:37:04.843Z,101438.02
2018-07-25T23:39:33.514Z,101446.41
2018-07-25T23:42:02.251Z,101443.72
2018-07-25T23:44:31.759Z,101449.76
2018-07-25T23:47:00.458Z,101447.06
2018-07-25T23:49:29.063Z,101455.99
2018-07-25T23:51:57.851Z,101453.48
2018-07-25T23:54:26.433Z,101460.04
2018-07-25T23:56:55.148Z,101461.71
2018-07-25T23:59:23.939Z,101469.39
